Navajo State Park, Colorado
Current Conditions -  °F | °C
As of 11:35 PM on Tuesday 25 Nov 2014 (Local Time) from KPSO Reporting Station
Clear Clear  
Wind Chill: 21°   Ceiling: Unl
Heat Index: 21°   Visibility: 10mi
Dew Point: 11°   Wind: 0mph
Humidity: 66%   Direction: NA
Pressure: 30.31"   Gusts: NA
Location:  37.2292°N, 107.329°W
Report Text: KPSO 260635Z AUTO 00000KT 10SM CLR M06/M12 A3031 RMK AO2 T10631118
Loading
Personal Weather Stations






























Interactive Weather Map New forecast layout! Learn more

10-Day Weather Forecast

Advertisements
Track Severe Weather on mobile